Time;durP1;ratioP1;P1;durP2;ratioP2;P2;SDS_P1;SDS_P2;PMS_P1;PMS_P2;Temp;Humidity;BMP_temperature;BMP_pressure;BME280_temperature;BME280_humidity;BME280_pressure;Samples;Min_cycle;Max_cycle;Signal;HPM_P1;HPM_P2
2022/09/21 00:01:53;;;;;;;0.67;0.67;;;10.40;99.90;;;;;;5003618;28;20683;-66
2022/09/21 00:04:20;;;;;;;0.97;0.97;;;10.30;99.90;;;;;;5001655;28;20206;-66
2022/09/21 00:06:47;;;;;;;1.50;0.80;;;10.30;99.90;;;;;;5006394;28;20668;-66
2022/09/21 00:09:15;;;;;;;0.70;0.70;;;10.40;99.90;;;;;;5000861;28;20209;-65
2022/09/21 00:11:42;;;;;;;0.80;0.80;;;10.30;99.90;;;;;;5001429;28;20244;-65
2022/09/21 00:14:12;;;;;;;0.97;0.90;;;10.30;99.90;;;;;;4996317;28;20230;-67
2022/09/21 00:16:40;;;;;;;0.53;0.53;;;10.30;99.90;;;;;;4996260;28;20659;-67
2022/09/21 00:19:06;;;;;;;0.70;0.70;;;10.30;99.90;;;;;;4994069;28;20344;-67
2022/09/21 00:21:34;;;;;;;0.70;0.70;;;10.20;99.90;;;;;;5003657;28;20220;-66
2022/09/21 00:24:01;;;;;;;0.60;0.60;;;10.20;99.90;;;;;;5001321;28;20205;-65
2022/09/21 00:26:30;;;;;;;0.73;0.73;;;10.10;99.90;;;;;;4997863;28;20214;-65
2022/09/21 00:28:59;;;;;;;1.00;0.90;;;10.00;99.90;;;;;;5000738;28;20651;-65
2022/09/21 00:31:27;;;;;;;0.63;0.63;;;9.90;99.90;;;;;;4996725;28;20230;-67
2022/09/21 00:33:54;;;;;;;0.70;0.70;;;9.90;99.90;;;;;;5002067;28;20576;-67
2022/09/21 00:36:23;;;;;;;0.70;0.70;;;9.80;99.90;;;;;;4996363;28;20665;-65
2022/09/21 00:38:52;;;;;;;0.90;0.90;;;9.70;99.90;;;;;;4990837;28;20218;-67
2022/09/21 00:41:19;;;;;;;0.73;0.73;;;9.60;99.90;;;;;;5002096;28;20230;-65
2022/09/21 00:43:49;;;;;;;0.80;0.80;;;9.60;99.90;;;;;;4994605;28;20210;-65
2022/09/21 00:46:21;;;;;;;0.80;0.80;;;9.70;99.90;;;;;;5003720;28;20209;-66
2022/09/21 00:48:48;;;;;;;0.80;0.80;;;9.60;99.90;;;;;;4996441;28;20198;-66
2022/09/21 00:51:16;;;;;;;0.60;0.60;;;9.60;99.90;;;;;;5004313;28;20576;-66
2022/09/21 00:53:43;;;;;;;0.73;0.73;;;9.60;99.90;;;;;;5003948;28;20584;-65
2022/09/21 00:56:12;;;;;;;0.70;0.70;;;9.70;99.90;;;;;;5007476;28;20236;-66
2022/09/21 00:58:43;;;;;;;0.80;0.80;;;9.70;99.90;;;;;;5004450;28;20252;-64
2022/09/21 01:01:15;;;;;;;0.63;0.63;;;9.80;99.90;;;;;;5009739;28;20273;-67
2022/09/21 01:03:43;;;;;;;0.80;0.80;;;9.80;99.90;;;;;;5002005;28;20233;-65
2022/09/21 01:06:10;;;;;;;0.80;0.80;;;9.80;99.90;;;;;;5003699;28;20209;-67
2022/09/21 01:08:38;;;;;;;0.70;0.70;;;9.80;99.90;;;;;;4998785;28;20298;-66
2022/09/21 01:11:24;;;;;;;0.70;0.70;;;9.80;99.90;;;;;;4993532;28;20214;-65
2022/09/21 01:14:05;;;;;;;1.07;1.03;;;9.80;99.90;;;;;;4982537;28;20210;-67
2022/09/21 01:16:40;;;;;;;0.90;0.90;;;9.80;99.90;;;;;;4982115;28;20197;-65
2022/09/21 01:19:23;;;;;;;0.87;0.87;;;9.70;99.90;;;;;;4980037;28;20999;-67
2022/09/21 01:22:00;;;;;;;0.60;0.60;;;9.60;99.90;;;;;;4980290;28;20281;-65
2022/09/21 01:24:40;;;;;;;0.80;0.80;;;9.60;99.90;;;;;;4984992;28;20268;-65
2022/09/21 01:27:38;;;;;;;0.70;0.70;;;9.60;99.90;;;;;;4982817;28;20280;-67
2022/09/21 01:30:09;;;;;;;0.90;0.90;;;9.50;99.90;;;;;;4995582;28;20224;-67
2022/09/21 01:32:41;;;;;;;0.40;0.40;;;9.50;99.90;;;;;;4994478;28;20237;-66
2022/09/21 01:35:12;;;;;;;0.70;0.70;;;9.40;99.90;;;;;;4994949;28;20252;-68
2022/09/21 01:37:43;;;;;;;0.87;0.87;;;9.30;99.90;;;;;;4988298;28;20202;-68
2022/09/21 01:40:16;;;;;;;0.70;0.70;;;9.30;99.90;;;;;;4999670;28;20206;-65
2022/09/21 01:42:46;;;;;;;0.80;0.80;;;9.20;99.90;;;;;;5001616;28;20262;-66
2022/09/21 01:45:16;;;;;;;0.70;0.70;;;9.10;99.90;;;;;;5002268;28;20212;-64
2022/09/21 01:47:45;;;;;;;0.70;0.70;;;9.00;99.90;;;;;;4993316;28;20213;-66
2022/09/21 01:50:14;;;;;;;1.00;1.00;;;9.00;99.90;;;;;;4991436;28;20210;-67
2022/09/21 01:52:49;;;;;;;0.90;0.90;;;8.90;99.90;;;;;;4986131;28;20222;-66
2022/09/21 01:55:27;;;;;;;0.80;0.80;;;9.00;99.90;;;;;;4986163;28;20218;-66
2022/09/21 01:58:00;;;;;;;0.80;0.80;;;9.00;99.90;;;;;;4976622;28;20678;-67
2022/09/21 02:00:29;;;;;;;0.77;0.77;;;8.90;99.90;;;;;;5002395;28;21561;-66
2022/09/21 02:03:03;;;;;;;0.50;0.50;;;8.90;99.90;;;;;;5001111;28;20231;-66
2022/09/21 02:05:30;;;;;;;0.87;0.87;;;8.90;99.90;;;;;;5005060;28;20206;-65
2022/09/21 02:07:58;;;;;;;0.60;0.60;;;8.90;99.90;;;;;;5003946;28;20205;-66
2022/09/21 02:10:30;;;;;;;0.63;0.63;;;8.80;99.90;;;;;;4997030;28;20684;-66
2022/09/21 02:13:01;;;;;;;1.17;1.10;;;8.80;99.90;;;;;;5002226;28;20225;-65
2022/09/21 02:15:39;;;;;;;0.73;0.73;;;8.80;99.90;;;;;;4999527;28;20218;-67
2022/09/21 02:18:13;;;;;;;0.77;0.77;;;8.80;99.90;;;;;;4996748;28;20223;-67
2022/09/21 02:20:49;;;;;;;0.97;0.97;;;8.70;99.90;;;;;;4997780;28;20212;-67
2022/09/21 02:23:23;;;;;;;0.80;0.80;;;8.70;99.90;;;;;;5011572;28;20252;-65
2022/09/21 02:25:57;;;;;;;1.13;1.00;;;8.70;99.90;;;;;;5004880;28;20197;-66
2022/09/21 02:28:34;;;;;;;0.90;0.90;;;8.70;99.90;;;;;;5009548;28;20206;-66
2022/09/21 02:31:11;;;;;;;0.67;0.67;;;8.70;99.90;;;;;;5005228;28;20293;-65
2022/09/21 02:33:46;;;;;;;0.70;0.70;;;8.70;99.90;;;;;;5005225;28;20210;-65
2022/09/21 02:36:21;;;;;;;1.00;0.90;;;8.70;99.90;;;;;;5005362;28;20223;-66
2022/09/21 02:38:53;;;;;;;0.70;0.70;;;8.70;99.90;;;;;;5008250;28;20297;-67
2022/09/21 02:41:26;;;;;;;0.70;0.70;;;8.70;99.90;;;;;;5008206;28;20251;-65
2022/09/21 02:44:02;;;;;;;0.80;0.80;;;8.70;99.90;;;;;;5001425;28;20198;-64
2022/09/21 02:46:35;;;;;;;1.10;1.00;;;8.70;99.90;;;;;;5007218;28;20207;-67
2022/09/21 02:49:08;;;;;;;0.87;0.87;;;8.70;99.90;;;;;;5003173;28;20561;-66
2022/09/21 02:51:39;;;;;;;1.10;0.97;;;8.50;99.90;;;;;;5004614;28;20249;-65
2022/09/21 02:54:11;;;;;;;0.67;0.67;;;8.50;99.90;;;;;;5000726;28;20353;-67
2022/09/21 02:56:39;;;;;;;0.97;0.97;;;8.50;99.90;;;;;;4998295;28;20304;-65
2022/09/21 02:59:07;;;;;;;1.13;0.80;;;8.50;99.90;;;;;;5003745;28;20220;-66
2022/09/21 03:01:35;;;;;;;0.83;0.83;;;8.50;99.90;;;;;;4993145;28;20221;-65
2022/09/21 03:04:02;;;;;;;0.80;0.80;;;8.50;99.90;;;;;;5011643;28;20288;-68
2022/09/21 03:06:30;;;;;;;2.03;1.00;;;8.50;99.90;;;;;;5007634;28;20571;-68
2022/09/21 03:08:57;;;;;;;0.60;0.60;;;8.50;99.90;;;;;;5007974;28;20233;-66
2022/09/21 03:11:24;;;;;;;0.80;0.80;;;8.50;99.90;;;;;;5010281;28;20225;-66
2022/09/21 03:13:51;;;;;;;0.80;0.80;;;8.50;99.90;;;;;;5003116;28;20202;-67
2022/09/21 03:16:18;;;;;;;0.87;0.87;;;8.50;99.90;;;;;;5011999;28;20229;-66
2022/09/21 03:18:47;;;;;;;0.70;0.70;;;8.50;99.90;;;;;;5004874;28;20205;-65
2022/09/21 03:21:14;;;;;;;0.90;0.90;;;8.50;99.90;;;;;;5010430;28;20746;-67
2022/09/21 03:23:41;;;;;;;1.03;0.90;;;8.40;99.90;;;;;;5007805;28;20285;-65
2022/09/21 03:26:08;;;;;;;2.17;1.20;;;8.40;99.90;;;;;;5009685;28;20279;-67
2022/09/21 03:28:36;;;;;;;0.70;0.70;;;8.40;99.90;;;;;;5008778;28;20270;-65
2022/09/21 03:31:02;;;;;;;0.80;0.80;;;8.40;99.90;;;;;;5003005;28;20198;-67
2022/09/21 03:33:29;;;;;;;0.80;0.80;;;8.30;99.90;;;;;;5010733;28;20201;-66
2022/09/21 03:35:58;;;;;;;0.80;0.80;;;8.30;99.90;;;;;;5003990;28;20602;-66
2022/09/21 03:38:25;;;;;;;0.80;0.80;;;8.40;99.90;;;;;;5010921;28;20209;-66
2022/09/21 03:40:53;;;;;;;1.00;1.00;;;8.30;99.90;;;;;;5006190;28;20198;-65
2022/09/21 03:43:20;;;;;;;0.80;0.80;;;8.30;99.90;;;;;;5011134;28;20275;-67
2022/09/21 03:45:48;;;;;;;0.90;0.90;;;8.20;99.90;;;;;;5009348;28;20194;-65
2022/09/21 03:48:15;;;;;;;0.80;0.80;;;8.10;99.90;;;;;;5003788;28;20293;-67
2022/09/21 03:50:43;;;;;;;0.90;0.90;;;8.10;99.90;;;;;;5010598;28;20317;-66
2022/09/21 03:53:11;;;;;;;0.70;0.70;;;8.00;99.90;;;;;;5003884;28;20782;-67
2022/09/21 03:55:38;;;;;;;0.93;0.93;;;7.90;99.90;;;;;;5004441;28;20229;-67
2022/09/21 03:58:05;;;;;;;0.87;0.77;;;7.90;99.90;;;;;;5003399;28;20210;-66
2022/09/21 04:00:32;;;;;;;0.90;0.90;;;7.90;99.90;;;;;;5007375;28;20210;-65
2022/09/21 04:03:00;;;;;;;0.97;0.97;;;7.90;99.90;;;;;;4991574;28;20236;-65
2022/09/21 04:05:28;;;;;;;1.13;1.03;;;7.90;99.90;;;;;;4996536;28;20208;-66
2022/09/21 04:07:56;;;;;;;0.70;0.70;;;8.00;99.90;;;;;;5011335;28;20201;-65
2022/09/21 04:10:28;;;;;;;0.70;0.70;;;7.90;99.90;;;;;;5005914;28;20213;-66
2022/09/21 04:12:57;;;;;;;1.20;1.10;;;7.80;99.90;;;;;;5011928;28;20603;-66
2022/09/21 04:15:24;;;;;;;0.80;0.80;;;7.80;99.90;;;;;;4998204;28;20230;-66
2022/09/21 04:17:52;;;;;;;0.70;0.70;;;7.80;99.90;;;;;;4999472;28;20293;-66
2022/09/21 04:20:19;;;;;;;0.70;0.70;;;7.80;99.90;;;;;;5000478;28;20218;-65
2022/09/21 04:22:46;;;;;;;0.90;0.90;;;7.80;99.90;;;;;;5006344;28;20221;-67
2022/09/21 04:25:14;;;;;;;0.93;0.93;;;7.70;99.90;;;;;;5008482;28;20653;-67
2022/09/21 04:27:43;;;;;;;0.70;0.70;;;7.70;99.90;;;;;;5005954;28;20675;-65
2022/09/21 04:30:12;;;;;;;0.90;0.90;;;7.70;99.90;;;;;;5009464;28;20202;-67
2022/09/21 04:32:39;;;;;;;0.90;0.90;;;7.80;99.90;;;;;;5007577;28;20252;-67
2022/09/21 04:35:07;;;;;;;0.90;0.90;;;7.80;99.90;;;;;;5003650;28;20201;-66
2022/09/21 04:37:34;;;;;;;1.37;1.00;;;7.80;99.90;;;;;;4995905;28;20213;-66
2022/09/21 04:40:01;;;;;;;0.73;0.73;;;7.70;99.90;;;;;;4982812;28;20297;-66
2022/09/21 04:42:28;;;;;;;0.70;0.70;;;7.70;99.90;;;;;;4993538;28;20234;-68
2022/09/21 04:44:57;;;;;;;1.00;0.90;;;7.70;99.90;;;;;;5001335;28;20205;-66
2022/09/21 04:47:24;;;;;;;0.80;0.80;;;7.70;99.90;;;;;;5005454;28;20198;-67
2022/09/21 04:49:52;;;;;;;0.70;0.70;;;7.90;99.90;;;;;;4997427;28;20630;-67
2022/09/21 04:52:19;;;;;;;0.80;0.80;;;7.90;99.90;;;;;;4999079;28;20236;-66
2022/09/21 04:54:46;;;;;;;0.90;0.90;;;7.90;99.90;;;;;;5007173;28;20668;-66
2022/09/21 04:57:13;;;;;;;0.80;0.80;;;7.90;99.90;;;;;;4999820;28;20317;-66
2022/09/21 04:59:40;;;;;;;1.00;1.00;;;7.80;99.90;;;;;;5004115;28;20211;-65
2022/09/21 05:02:08;;;;;;;0.83;0.83;;;7.70;99.90;;;;;;5002805;28;20274;-68
2022/09/21 05:04:36;;;;;;;0.93;0.93;;;7.70;99.90;;;;;;4998877;28;20624;-66
2022/09/21 05:07:03;;;;;;;0.97;0.97;;;7.60;99.90;;;;;;5008417;28;20539;-67
2022/09/21 05:12:14;;;;;;;1.20;1.10;;;7.60;99.90;;;;;;5001529;28;20767;-66
2022/09/21 05:14:42;;;;;;;0.97;0.97;;;7.50;99.90;;;;;;5003596;28;20228;-68
2022/09/21 05:17:11;;;;;;;0.90;0.90;;;7.50;99.90;;;;;;5006898;28;20229;-67
2022/09/21 05:19:38;;;;;;;1.07;0.97;;;7.50;99.90;;;;;;5011074;28;20202;-66
2022/09/21 05:22:05;;;;;;;1.47;1.10;;;7.40;99.90;;;;;;4999365;28;20230;-66
2022/09/21 05:24:32;;;;;;;0.90;0.90;;;7.40;99.90;;;;;;5001020;28;20265;-67
2022/09/21 05:26:59;;;;;;;1.20;1.00;;;7.50;99.90;;;;;;4990548;28;20202;-67
2022/09/21 05:29:26;;;;;;;0.97;0.97;;;7.50;99.90;;;;;;4983316;28;20205;-67
2022/09/21 05:31:58;;;;;;;0.80;0.80;;;7.50;99.90;;;;;;5008529;28;20231;-66
2022/09/21 05:34:38;;;;;;;1.00;1.00;;;7.50;99.90;;;;;;5005666;28;20220;-66
2022/09/21 05:37:11;;;;;;;0.97;0.97;;;7.50;99.90;;;;;;5005418;28;20320;-66
2022/09/21 05:39:39;;;;;;;0.90;0.90;;;7.50;99.90;;;;;;4997093;28;20193;-66
2022/09/21 05:42:07;;;;;;;0.83;0.83;;;7.50;99.90;;;;;;4999830;28;20245;-68
2022/09/21 05:44:34;;;;;;;1.00;1.00;;;7.50;99.90;;;;;;4996412;28;20300;-67
2022/09/21 05:47:06;;;;;;;1.00;1.00;;;7.50;99.90;;;;;;4987915;28;20202;-64
2022/09/21 05:49:45;;;;;;;0.90;0.90;;;7.50;99.90;;;;;;4988401;28;20201;-66
2022/09/21 05:52:21;;;;;;;0.90;0.90;;;7.50;99.90;;;;;;4992377;28;20224;-66
2022/09/21 05:55:06;;;;;;;1.00;1.00;;;7.60;99.90;;;;;;5003313;28;20725;-67
2022/09/21 05:57:45;;;;;;;1.10;1.10;;;7.60;99.90;;;;;;4993149;28;20212;-66
2022/09/21 06:00:17;;;;;;;1.87;1.20;;;7.60;99.90;;;;;;5003035;28;20210;-67
2022/09/21 06:02:56;;;;;;;1.10;1.10;;;7.60;99.90;;;;;;4998494;28;20921;-66
2022/09/21 06:05:25;;;;;;;1.00;1.00;;;7.60;99.90;;;;;;5007637;28;20285;-67
2022/09/21 06:07:52;;;;;;;0.90;0.90;;;7.80;99.90;;;;;;5012720;28;20219;-67
2022/09/21 06:10:19;;;;;;;1.00;1.00;;;7.80;99.90;;;;;;5007999;28;20308;-68
2022/09/21 06:12:46;;;;;;;1.00;1.00;;;7.80;99.90;;;;;;5015860;28;20217;-65
2022/09/21 06:15:15;;;;;;;1.33;1.10;;;7.80;99.90;;;;;;5000330;28;20289;-67
2022/09/21 06:17:42;;;;;;;0.90;0.90;;;7.90;99.90;;;;;;5008097;28;20236;-68
2022/09/21 06:20:09;;;;;;;1.10;1.10;;;8.00;99.90;;;;;;5007659;28;20713;-67
2022/09/21 06:22:38;;;;;;;1.13;1.00;;;8.00;99.90;;;;;;5009838;28;20723;-66
2022/09/21 06:25:05;;;;;;;1.30;1.20;;;8.10;99.90;;;;;;5012364;28;20212;-67
2022/09/21 06:27:32;;;;;;;1.07;1.07;;;8.20;99.90;;;;;;5010643;28;20586;-65
2022/09/21 06:29:59;;;;;;;1.10;1.10;;;8.30;99.90;;;;;;5013691;28;20370;-65
2022/09/21 06:32:26;;;;;;;1.00;1.00;;;8.40;99.90;;;;;;5002955;28;20232;-68
2022/09/21 06:34:53;;;;;;;1.20;1.20;;;8.50;99.90;;;;;;4999280;28;20202;-67
2022/09/21 06:37:19;;;;;;;1.10;1.10;;;8.60;99.90;;;;;;5008886;28;20317;-66
2022/09/21 06:39:48;;;;;;;1.27;1.17;;;8.70;99.90;;;;;;5008289;28;20212;-67
2022/09/21 06:42:14;;;;;;;0.93;0.93;;;8.80;99.90;;;;;;5010945;28;20237;-64
2022/09/21 06:44:41;;;;;;;0.93;0.93;;;8.80;99.90;;;;;;5022131;28;20272;-66
2022/09/21 06:47:08;;;;;;;0.87;0.87;;;8.90;99.90;;;;;;5018478;28;20224;-68
2022/09/21 06:49:35;;;;;;;1.10;1.10;;;8.90;99.90;;;;;;5023108;28;20205;-66
2022/09/21 06:52:03;;;;;;;1.30;1.20;;;9.10;99.90;;;;;;5017718;28;20300;-68
2022/09/21 06:54:30;;;;;;;1.00;1.00;;;9.20;99.90;;;;;;5036592;23;20614;-65
2022/09/21 06:56:58;;;;;;;1.00;1.00;;;9.30;99.90;;;;;;5012830;28;20221;-63
2022/09/21 06:59:25;;;;;;;1.00;1.00;;;9.40;99.90;;;;;;5013490;28;20694;-62
2022/09/21 07:01:54;;;;;;;1.10;1.10;;;9.50;99.90;;;;;;5013152;28;20205;-64
2022/09/21 07:04:23;;;;;;;0.90;0.90;;;9.60;99.90;;;;;;5013532;28;20209;-64
2022/09/21 07:06:50;;;;;;;0.90;0.90;;;9.80;99.90;;;;;;5003050;28;20222;-65
2022/09/21 07:09:18;;;;;;;0.93;0.93;;;9.90;99.90;;;;;;4997784;28;20575;-64
2022/09/21 07:11:45;;;;;;;0.93;0.93;;;10.00;99.90;;;;;;5010148;28;20240;-65
2022/09/21 07:14:14;;;;;;;1.10;1.10;;;10.10;99.90;;;;;;4991516;28;20305;-65
2022/09/21 07:16:42;;;;;;;0.83;0.83;;;10.20;99.90;;;;;;4987646;28;20226;-65
2022/09/21 07:19:09;;;;;;;1.20;1.20;;;10.30;99.90;;;;;;4993870;28;20256;-63
2022/09/21 07:21:36;;;;;;;0.90;0.90;;;10.40;99.90;;;;;;4991030;28;20206;-63
2022/09/21 07:24:02;;;;;;;0.90;0.90;;;10.50;99.90;;;;;;4993355;28;20856;-66
2022/09/21 07:26:29;;;;;;;0.87;0.87;;;10.70;99.90;;;;;;4995826;28;20249;-64
2022/09/21 07:28:56;;;;;;;0.80;0.80;;;10.80;99.90;;;;;;4994854;28;20583;-64
2022/09/21 07:31:24;;;;;;;0.80;0.80;;;10.90;99.90;;;;;;5002717;28;20202;-66
2022/09/21 07:33:56;;;;;;;1.00;1.00;;;11.10;99.90;;;;;;4999078;28;20602;-65
2022/09/21 07:36:23;;;;;;;0.80;0.80;;;11.20;99.90;;;;;;4997509;28;20251;-65
2022/09/21 07:38:50;;;;;;;0.93;0.93;;;11.20;99.90;;;;;;5001277;28;20213;-64
2022/09/21 07:41:17;;;;;;;0.97;0.97;;;11.30;99.90;;;;;;5006423;28;20205;-64
2022/09/21 07:43:44;;;;;;;1.10;1.10;;;11.40;99.90;;;;;;5003954;28;20227;-64
2022/09/21 07:46:12;;;;;;;1.17;1.17;;;11.50;99.90;;;;;;5004859;28;20222;-64
2022/09/21 07:48:41;;;;;;;1.57;1.20;;;11.60;99.90;;;;;;4990130;28;20300;-64
2022/09/21 07:51:10;;;;;;;1.00;1.00;;;11.70;99.90;;;;;;4996996;28;20214;-64
2022/09/21 07:53:39;;;;;;;1.20;1.10;;;11.80;99.90;;;;;;4998038;28;20291;-64
2022/09/21 07:56:08;;;;;;;0.90;0.90;;;11.80;99.90;;;;;;5001061;28;20229;-64
2022/09/21 08:01:20;;;;;;;1.30;1.20;;;12.00;99.90;;;;;;4997842;28;20265;-64
2022/09/21 08:03:50;;;;;;;1.30;1.20;;;12.20;99.90;;;;;;5006451;28;20289;-63
2022/09/21 08:06:18;;;;;;;1.40;1.30;;;12.30;99.90;;;;;;5012341;28;20221;-63
2022/09/21 08:08:47;;;;;;;1.20;1.20;;;12.40;99.90;;;;;;5004414;28;20197;-64
2022/09/21 08:11:14;;;;;;;1.27;1.10;;;12.50;99.90;;;;;;5004781;28;20205;-64
2022/09/21 08:13:41;;;;;;;1.00;1.00;;;12.50;99.90;;;;;;5009623;28;20204;-63
2022/09/21 08:16:09;;;;;;;1.10;1.10;;;12.40;99.90;;;;;;5009251;28;20251;-65
2022/09/21 08:18:37;;;;;;;0.93;0.93;;;12.60;99.90;;;;;;5004971;28;20201;-64
2022/09/21 08:21:07;;;;;;;1.10;1.10;;;12.80;99.90;;;;;;4986181;28;20213;-64
2022/09/21 08:23:34;;;;;;;0.83;0.83;;;13.00;99.90;;;;;;5001154;28;20197;-63
2022/09/21 08:26:04;;;;;;;1.10;1.10;;;13.20;99.90;;;;;;4994835;28;20222;-64
2022/09/21 08:28:32;;;;;;;1.50;1.40;;;13.30;99.90;;;;;;4994736;28;20225;-64
2022/09/21 08:31:00;;;;;;;1.40;1.27;;;13.50;99.90;;;;;;4992326;28;20202;-64
2022/09/21 08:33:27;;;;;;;1.30;1.20;;;13.60;99.90;;;;;;4995017;28;20236;-64
2022/09/21 08:35:54;;;;;;;1.30;1.30;;;13.70;99.90;;;;;;4992731;28;20280;-66
2022/09/21 08:38:23;;;;;;;1.13;1.13;;;13.80;99.90;;;;;;4988779;28;20257;-65
2022/09/21 08:40:52;;;;;;;0.90;0.90;;;13.80;99.90;;;;;;4987860;28;20657;-63
2022/09/21 08:43:28;;;;;;;1.10;1.10;;;14.00;99.90;;;;;;4991263;28;20749;-65
2022/09/21 08:45:57;;;;;;;1.50;1.40;;;14.10;99.90;;;;;;4991198;28;20226;-65
2022/09/21 08:48:28;;;;;;;6.23;1.40;;;14.20;99.90;;;;;;4983785;28;20199;-62
2022/09/21 08:50:57;;;;;;;1.00;1.00;;;14.40;99.90;;;;;;4982203;28;20227;-65
2022/09/21 08:53:30;;;;;;;1.10;1.10;;;14.50;99.90;;;;;;4985427;28;20614;-66
2022/09/21 08:55:57;;;;;;;1.50;1.40;;;14.70;99.90;;;;;;4987430;28;20241;-66
2022/09/21 08:58:25;;;;;;;1.37;1.30;;;14.80;99.90;;;;;;4987551;28;20277;-67
2022/09/21 09:01:06;;;;;;;1.50;1.40;;;14.70;99.90;;;;;;4978454;28;20203;-63
2022/09/21 09:03:48;;;;;;;1.80;1.70;;;14.60;99.90;;;;;;4988344;28;20705;-65
2022/09/21 09:06:24;;;;;;;1.47;1.37;;;14.70;99.90;;;;;;4987289;28;20232;-64
2022/09/21 09:09:17;;;;;;;1.40;1.37;;;14.90;99.90;;;;;;4991796;28;20206;-64
2022/09/21 09:12:00;;;;;;;1.40;1.30;;;15.10;99.90;;;;;;4988502;28;20202;-64
2022/09/21 09:14:53;;;;;;;1.10;1.10;;;15.30;99.90;;;;;;4991392;28;20222;-64
2022/09/21 09:17:33;;;;;;;1.40;1.30;;;15.40;99.90;;;;;;4991664;28;20249;-64
2022/09/21 09:20:06;;;;;;;1.43;1.37;;;15.50;99.90;;;;;;4988442;28;20742;-64
2022/09/21 09:22:40;;;;;;;1.53;1.43;;;15.70;99.90;;;;;;4986147;28;20357;-66
2022/09/21 09:25:18;;;;;;;1.47;1.40;;;15.90;99.90;;;;;;4982095;28;20238;-65
2022/09/21 09:27:46;;;;;;;1.20;1.20;;;15.90;99.90;;;;;;4985750;28;20245;-65
2022/09/21 09:30:18;;;;;;;1.40;1.30;;;16.00;99.90;;;;;;4992220;28;20210;-64
2022/09/21 09:32:52;;;;;;;0.90;0.90;;;16.10;99.90;;;;;;4992690;28;20229;-65
2022/09/21 09:35:26;;;;;;;1.43;1.30;;;16.30;99.90;;;;;;4985750;28;20259;-65
2022/09/21 09:37:58;;;;;;;1.00;1.00;;;16.50;99.90;;;;;;4992125;28;20222;-64
2022/09/21 09:40:42;;;;;;;0.80;0.80;;;16.60;99.90;;;;;;4989064;28;20673;-65
2022/09/21 09:43:16;;;;;;;1.00;1.00;;;16.50;99.90;;;;;;4990483;28;20704;-64
2022/09/21 09:45:53;;;;;;;1.00;1.00;;;16.60;99.90;;;;;;4985593;28;20267;-65
2022/09/21 09:48:53;;;;;;;0.80;0.80;;;16.60;99.90;;;;;;4992868;28;20209;-66
2022/09/21 09:51:21;;;;;;;0.80;0.80;;;16.70;99.90;;;;;;4993816;28;20211;-64
2022/09/21 09:53:48;;;;;;;1.27;0.97;;;16.60;99.90;;;;;;4997271;28;20229;-64
2022/09/21 09:56:18;;;;;;;0.80;0.80;;;16.80;99.90;;;;;;4988938;28;20245;-64
2022/09/21 09:58:52;;;;;;;0.70;0.70;;;16.70;99.90;;;;;;4992757;28;20703;-64
2022/09/21 10:01:42;;;;;;;1.20;1.10;;;17.00;99.90;;;;;;4986317;28;20209;-64
2022/09/21 10:04:11;;;;;;;0.90;0.90;;;17.10;99.90;;;;;;4989084;28;20285;-62
2022/09/21 10:06:38;;;;;;;0.90;0.90;;;17.20;99.90;;;;;;4986576;28;20207;-63
2022/09/21 10:09:20;;;;;;;0.70;0.70;;;17.40;99.90;;;;;;4991277;28;20206;-63
2022/09/21 10:11:49;;;;;;;1.20;1.10;;;17.60;99.90;;;;;;4987991;28;20215;-63
2022/09/21 10:14:20;;;;;;;1.20;1.20;;;17.70;99.90;;;;;;4985183;28;20257;-63
2022/09/21 10:16:51;;;;;;;1.10;1.10;;;17.80;99.90;;;;;;4990967;28;20664;-63
2022/09/21 10:19:21;;;;;;;1.07;1.07;;;17.70;99.90;;;;;;4986305;28;20270;-63
2022/09/21 10:21:55;;;;;;;0.90;0.90;;;17.80;99.90;;;;;;4992440;28;20217;-63
2022/09/21 10:24:25;;;;;;;1.00;1.00;;;17.90;99.90;;;;;;4989158;28;20202;-63
2022/09/21 10:26:55;;;;;;;1.17;0.90;;;18.10;99.90;;;;;;4982293;28;20242;-62
2022/09/21 10:29:31;;;;;;;0.90;0.90;;;18.10;99.90;;;;;;4985989;28;20264;-62
2022/09/21 10:32:00;;;;;;;0.93;0.93;;;18.10;99.90;;;;;;4991776;28;20208;-63
2022/09/21 10:34:30;;;;;;;1.00;1.00;;;18.20;99.90;;;;;;4987361;28;20313;-62
2022/09/21 10:36:59;;;;;;;0.83;0.80;;;18.30;99.90;;;;;;4988066;28;20230;-64
2022/09/21 10:39:30;;;;;;;1.20;1.10;;;18.30;99.90;;;;;;4988225;28;20202;-62
2022/09/21 10:42:11;;;;;;;0.90;0.90;;;18.10;99.90;;;;;;4981225;28;20210;-64
2022/09/21 10:44:41;;;;;;;0.80;0.80;;;18.20;99.90;;;;;;4989889;28;20233;-63
2022/09/21 10:47:18;;;;;;;0.90;0.90;;;18.50;99.90;;;;;;4988997;28;20210;-63
2022/09/21 10:49:49;;;;;;;0.87;0.87;;;18.70;99.90;;;;;;4988429;28;20194;-63
2022/09/21 10:52:19;;;;;;;0.80;0.80;;;18.90;99.90;;;;;;4995807;28;20628;-63
2022/09/21 10:54:50;;;;;;;0.80;0.80;;;19.10;99.90;;;;;;4988325;28;20230;-64
2022/09/21 10:57:22;;;;;;;0.80;0.80;;;19.30;99.90;;;;;;5004124;28;20209;-64
2022/09/21 10:59:49;;;;;;;0.80;0.80;;;19.40;99.90;;;;;;5004485;28;20238;-65
2022/09/21 11:02:33;;;;;;;0.82;0.82;;;19.30;99.90;;;;;;4993790;28;20246;-64
2022/09/21 11:05:04;;;;;;;0.60;0.60;;;19.40;99.90;;;;;;4998262;28;20218;-64
2022/09/21 11:07:34;;;;;;;0.43;0.43;;;19.40;99.90;;;;;;5012390;28;20206;-65
2022/09/21 11:10:10;;;;;;;0.53;0.53;;;19.50;99.90;;;;;;5005179;28;20210;-65
2022/09/21 11:12:49;;;;;;;0.70;0.70;;;19.70;99.90;;;;;;5001380;28;20205;-65
2022/09/21 11:15:25;;;;;;;0.53;0.53;;;19.80;99.90;;;;;;5001603;28;20233;-64
2022/09/21 11:17:59;;;;;;;0.70;0.70;;;20.00;99.90;;;;;;5008759;28;20221;-64
2022/09/21 11:20:31;;;;;;;0.60;0.60;;;20.10;99.90;;;;;;5004604;28;20202;-64
2022/09/21 11:23:05;;;;;;;0.60;0.60;;;20.30;99.90;;;;;;4996403;28;20212;-64
2022/09/21 11:25:42;;;;;;;0.50;0.50;;;20.40;99.90;;;;;;5008069;28;20239;-63
2022/09/21 11:28:16;;;;;;;0.67;0.67;;;20.50;99.90;;;;;;5008948;28;20292;-63
2022/09/21 11:30:58;;;;;;;0.60;0.60;;;20.60;99.90;;;;;;4998743;28;20669;-63
2022/09/21 11:33:43;;;;;;;0.50;0.50;;;20.50;99.90;;;;;;5006065;28;20205;-64
2022/09/21 11:36:17;;;;;;;0.53;0.53;;;20.60;99.90;;;;;;5023923;28;20233;-64
2022/09/21 11:38:56;;;;;;;0.53;0.53;;;20.60;99.90;;;;;;5018643;28;20226;-64
2022/09/21 11:41:42;;;;;;;0.53;0.53;;;20.60;99.90;;;;;;5018774;28;20209;-64
2022/09/21 11:44:26;;;;;;;0.50;0.50;;;20.70;99.90;;;;;;5005585;28;20206;-64
2022/09/21 11:47:01;;;;;;;0.60;0.60;;;20.80;99.90;;;;;;5005657;28;20205;-63
2022/09/21 11:49:43;;;;;;;0.40;0.40;;;20.80;99.90;;;;;;5008273;28;20202;-64
2022/09/21 11:52:27;;;;;;;0.60;0.60;;;20.80;99.90;;;;;;5017197;28;20209;-62
2022/09/21 11:55:20;;;;;;;0.40;0.40;;;20.80;99.90;;;;;;4990599;28;20237;-64
2022/09/21 11:57:54;;;;;;;0.27;0.27;;;20.80;99.90;;;;;;5007479;28;20252;-64
2022/09/21 12:00:23;;;;;;;0.50;0.50;;;20.90;99.90;;;;;;5013377;28;20524;-64
2022/09/21 12:03:24;;;;;;;0.53;0.40;;;20.90;99.90;;;;;;5003763;28;20209;-63
2022/09/21 12:06:06;;;;;;;0.40;0.40;;;20.90;99.90;;;;;;4995474;28;20222;-63
2022/09/21 12:08:57;;;;;;;0.83;0.83;;;20.70;99.90;;;;;;5006196;28;20201;-63
2022/09/21 12:11:35;;;;;;;0.50;0.50;;;20.70;99.90;;;;;;5002888;28;20577;-64
2022/09/21 12:14:10;;;;;;;0.50;0.50;;;20.70;99.90;;;;;;5005513;28;20201;-63
2022/09/21 12:16:44;;;;;;;0.50;0.50;;;20.90;99.90;;;;;;5000140;28;20208;-64
2022/09/21 12:19:23;;;;;;;0.40;0.40;;;20.80;99.90;;;;;;5009007;28;20279;-64
2022/09/21 12:21:55;;;;;;;0.40;0.40;;;20.70;99.90;;;;;;4998221;28;20658;-64
2022/09/21 12:24:27;;;;;;;0.30;0.30;;;20.80;99.90;;;;;;5010954;28;20213;-64
2022/09/21 12:26:57;;;;;;;0.40;0.40;;;21.00;99.90;;;;;;5011475;28;20213;-64
2022/09/21 12:29:31;;;;;;;0.50;0.50;;;21.00;99.90;;;;;;4998941;28;20199;-64
2022/09/21 12:32:05;;;;;;;0.47;0.47;;;21.00;99.90;;;;;;5006387;28;20585;-65
2022/09/21 12:34:40;;;;;;;0.23;0.23;;;20.90;99.90;;;;;;5013688;28;20269;-65
2022/09/21 12:37:13;;;;;;;0.50;0.50;;;21.00;99.90;;;;;;5006008;28;20210;-64
2022/09/21 12:39:44;;;;;;;0.40;0.40;;;20.80;99.90;;;;;;5000273;28;20581;-65
2022/09/21 12:42:23;;;;;;;0.43;0.43;;;20.80;99.90;;;;;;5006761;28;20289;-65
2022/09/21 12:44:55;;;;;;;0.30;0.30;;;20.90;99.90;;;;;;5000709;28;20225;-64
2022/09/21 12:47:28;;;;;;;0.47;0.47;;;20.90;99.90;;;;;;5003788;28;20214;-64
2022/09/21 12:49:59;;;;;;;1.00;1.00;;;20.80;99.90;;;;;;5002579;28;20198;-63
2022/09/21 12:52:27;;;;;;;0.50;0.50;;;20.70;99.90;;;;;;5006614;28;20567;-63
2022/09/21 12:55:01;;;;;;;0.40;0.40;;;20.90;99.90;;;;;;5002522;28;20229;-64
2022/09/21 12:57:42;;;;;;;0.37;0.37;;;20.90;99.90;;;;;;5002563;28;20205;-63
2022/09/21 13:00:11;;;;;;;0.40;0.40;;;21.00;99.90;;;;;;5007048;28;20237;-64
2022/09/21 13:02:45;;;;;;;0.40;0.40;;;21.00;99.90;;;;;;5000692;28;20719;-64
2022/09/21 13:05:20;;;;;;;0.50;0.50;;;21.20;99.90;;;;;;4999917;28;20240;-63
2022/09/21 13:08:11;;;;;;;0.50;0.50;;;21.20;99.90;;;;;;5008958;28;20202;-66
2022/09/21 13:10:48;;;;;;;0.30;0.30;;;21.20;99.90;;;;;;4995067;28;20233;-63
2022/09/21 13:13:27;;;;;;;0.40;0.40;;;21.20;99.90;;;;;;4996090;28;20212;-65
2022/09/21 13:15:55;;;;;;;0.47;0.47;;;21.20;99.90;;;;;;5006077;28;20221;-65
2022/09/21 13:18:28;;;;;;;0.53;0.53;;;21.10;99.90;;;;;;5003535;28;20243;-65
2022/09/21 13:20:56;;;;;;;0.30;0.30;;;21.10;99.90;;;;;;5005679;28;20205;-65